createdAt,value
2019-05-12T00:01:21.424Z,31.60
2019-05-12T00:03:48.590Z,31.60
2019-05-12T00:06:17.515Z,31.60
2019-05-12T00:08:43.850Z,31.60
2019-05-12T00:11:10.700Z,31.50
2019-05-12T00:13:38.487Z,31.50
2019-05-12T00:16:05.604Z,31.50
2019-05-12T00:18:32.437Z,31.50
2019-05-12T00:20:59.278Z,31.50
2019-05-12T00:23:30.334Z,31.40
2019-05-12T00:25:55.122Z,31.40
2019-05-12T00:28:21.955Z,31.50
2019-05-12T00:30:48.862Z,31.50
2019-05-12T00:33:17.818Z,31.50
2019-05-12T00:35:44.322Z,31.50
2019-05-12T00:38:11.165Z,31.50
2019-05-12T00:40:39.179Z,31.50
2019-05-12T00:43:08.696Z,31.50
2019-05-12T00:45:35.078Z,31.50
2019-05-12T00:48:01.913Z,31.50
2019-05-12T00:50:29.124Z,31.50
2019-05-12T00:52:58.043Z,31.50
2019-05-12T00:55:24.690Z,31.50
2019-05-12T00:57:51.531Z,31.50
2019-05-12T01:00:18.374Z,31.50
2019-05-12T01:02:45.223Z,31.50
2019-05-12T01:05:12.065Z,31.50
2019-05-12T01:07:39.009Z,31.50
2019-05-12T01:10:05.744Z,31.50
2019-05-12T01:12:32.685Z,31.50
2019-05-12T01:14:59.528Z,31.40
2019-05-12T01:17:28.194Z,31.40
2019-05-12T01:19:54.744Z,31.50
2019-05-12T01:22:21.586Z,31.40
2019-05-12T01:24:48.431Z,31.40
2019-05-12T01:27:15.269Z,31.40
2019-05-12T01:29:42.062Z,31.40
2019-05-12T01:32:08.857Z,31.40
2019-05-12T01:34:38.170Z,31.40
2019-05-12T01:37:04.274Z,31.40
2019-05-12T01:39:31.013Z,31.40
2019-05-12T01:41:58.730Z,31.40
2019-05-12T01:44:25.727Z,31.40
2019-05-12T01:46:52.561Z,31.40
2019-05-12T01:49:19.403Z,31.30
2019-05-12T01:51:47.643Z,31.30
2019-05-12T01:54:15.201Z,31.30
2019-05-12T01:56:42.079Z,31.30
2019-05-12T01:59:08.931Z,31.30
2019-05-12T02:01:35.761Z,31.30
2019-05-12T02:04:02.502Z,31.30
2019-05-12T02:06:29.345Z,31.30
2019-05-12T02:08:58.049Z,31.30
2019-05-12T02:11:24.562Z,31.30
2019-05-12T02:13:51.719Z,31.30
2019-05-12T02:16:18.931Z,31.30
2019-05-12T02:18:46.013Z,31.30
2019-05-12T02:21:12.805Z,31.30
2019-05-12T02:23:39.614Z,31.30
2019-05-12T02:26:08.272Z,31.30
2019-05-12T02:28:34.864Z,31.30
2019-05-12T02:31:01.652Z,31.20
2019-05-12T02:33:28.494Z,31.20
2019-05-12T02:35:55.337Z,31.20
2019-05-12T02:38:24.978Z,31.20
2019-05-12T02:40:50.659Z,31.20
2019-05-12T02:43:17.449Z,31.20
2019-05-12T02:45:44.725Z,31.20
2019-05-12T02:48:14.461Z,31.20
2019-05-12T02:50:40.293Z,31.20
2019-05-12T02:53:07.178Z,31.20
2019-05-12T02:55:34.997Z,31.20
2019-05-12T02:58:04.931Z,31.20
2019-05-12T03:00:30.927Z,31.20
2019-05-12T03:02:57.660Z,31.20
2019-05-12T03:05:24.944Z,31.20
2019-05-12T03:07:55.125Z,31.20
2019-05-12T03:10:20.546Z,31.20
2019-05-12T03:12:47.397Z,31.10
2019-05-12T03:15:15.362Z,31.10
2019-05-12T03:17:44.341Z,31.10
2019-05-12T03:22:44.815Z,31.20
2019-05-12T03:25:19.852Z,31.20
2019-05-12T03:27:39.607Z,31.20
2019-05-12T03:30:11.412Z,31.20
2019-05-12T03:32:37.897Z,31.20
2019-05-12T03:35:08.915Z,31.20
2019-05-12T03:37:35.188Z,31.20
2019-05-12T03:40:00.560Z,31.30
2019-05-12T03:42:28.079Z,31.30
2019-05-12T03:44:54.890Z,31.30
2019-05-12T03:47:24.781Z,31.30
2019-05-12T03:49:50.301Z,31.30
2019-05-12T03:52:17.304Z,31.40
2019-05-12T03:54:45.144Z,31.40
2019-05-12T03:57:14.894Z,31.40
2019-05-12T03:59:40.618Z,31.40
2019-05-12T04:02:07.366Z,31.40
2019-05-12T04:04:34.896Z,31.40
2019-05-12T04:07:04.910Z,31.40
2019-05-12T04:09:30.140Z,31.40
2019-05-12T04:11:56.984Z,31.40
2019-05-12T04:14:25.183Z,31.50
2019-05-12T04:16:54.933Z,31.50
2019-05-12T04:19:20.681Z,31.50
2019-05-12T04:21:47.520Z,31.60
2019-05-12T04:24:14.520Z,31.60
2019-05-12T04:26:44.651Z,31.60
2019-05-12T04:29:09.738Z,31.70
2019-05-12T04:31:36.529Z,31.70
2019-05-12T04:34:05.168Z,31.80
2019-05-12T04:36:35.183Z,31.80
2019-05-12T04:39:00.326Z,31.80
2019-05-12T04:41:27.166Z,31.80
2019-05-12T04:43:55.046Z,31.80
2019-05-12T04:46:25.023Z,31.80
2019-05-12T04:48:50.462Z,31.80
2019-05-12T04:51:17.300Z,31.80
2019-05-12T04:53:44.871Z,31.80
2019-05-12T04:56:19.293Z,31.80
2019-05-12T04:58:40.695Z,31.90
2019-05-12T05:01:07.429Z,31.90
2019-05-12T05:03:35.070Z,31.90
2019-05-12T05:06:04.469Z,32.00
2019-05-12T05:08:30.414Z,32.00
2019-05-12T05:10:57.255Z,32.10
2019-05-12T05:13:24.514Z,32.10
2019-05-12T05:15:51.422Z,32.10
2019-05-12T05:18:18.300Z,32.20
2019-05-12T05:20:45.146Z,32.20
2019-05-12T05:23:13.929Z,32.30
2019-05-12T05:25:40.665Z,32.30
2019-05-12T05:28:07.760Z,32.30
2019-05-12T05:30:34.563Z,32.40
2019-05-12T05:33:03.706Z,32.50
2019-05-12T05:35:35.058Z,32.60
2019-05-12T05:37:58.764Z,32.60
2019-05-12T05:40:30.132Z,32.60
2019-05-12T05:42:54.324Z,32.70
2019-05-12T05:45:24.207Z,32.80
2019-05-12T05:47:49.710Z,32.90
2019-05-12T05:50:18.416Z,32.90
2019-05-12T05:52:44.957Z,32.70
2019-05-12T05:55:19.862Z,32.70
2019-05-12T05:57:44.395Z,32.80
2019-05-12T06:00:17.391Z,32.90
2019-05-12T06:02:40.442Z,33.00
2019-05-12T06:05:07.432Z,32.80
2019-05-12T06:07:38.599Z,32.90
2019-05-12T06:10:04.090Z,33.10
2019-05-12T06:12:32.900Z,33.20
2019-05-12T06:14:59.874Z,33.40
2019-05-12T06:17:26.894Z,33.50
2019-05-12T06:19:53.947Z,33.60
2019-05-12T06:22:20.656Z,33.80
2019-05-12T06:24:53.745Z,33.90
2019-05-12T06:27:20.905Z,34.10
2019-05-12T06:29:46.909Z,34.30
2019-05-12T06:32:14.220Z,34.50
2019-05-12T06:34:43.441Z,34.80
2019-05-12T06:37:16.956Z,34.70
2019-05-12T06:39:37.963Z,34.60
2019-05-12T06:42:12.365Z,34.50
2019-05-12T06:44:34.306Z,34.40
2019-05-12T06:47:03.407Z,34.50
2019-05-12T06:49:29.941Z,34.60
2019-05-12T06:52:01.441Z,34.80
2019-05-12T06:54:26.483Z,34.70
2019-05-12T06:57:04.353Z,34.90
2019-05-12T06:59:23.780Z,35.00
2019-05-12T07:01:56.122Z,35.10
2019-05-12T07:04:21.276Z,35.30
2019-05-12T07:06:49.811Z,35.50
2019-05-12T07:09:25.116Z,35.60
2019-05-12T07:11:53.127Z,35.90
2019-05-12T07:14:22.134Z,36.30
2019-05-12T07:16:43.758Z,36.70
2019-05-12T07:19:20.544Z,37.00
2019-05-12T07:21:38.754Z,37.10
2019-05-12T07:24:10.946Z,37.20
2019-05-12T07:26:34.381Z,37.60
2019-05-12T07:29:01.218Z,38.10
2019-05-12T07:31:28.055Z,38.60
2019-05-12T07:33:54.906Z,39.00
2019-05-12T07:36:24.123Z,39.60
2019-05-12T07:38:50.323Z,40.00
2019-05-12T07:41:17.063Z,40.40
2019-05-12T07:43:44.445Z,40.70
2019-05-12T07:46:13.374Z,41.20
2019-05-12T07:48:45.487Z,41.80
2019-05-12T07:51:08.426Z,42.20
2019-05-12T07:53:35.266Z,42.50
2019-05-12T07:56:04.139Z,42.50
2019-05-12T07:58:30.508Z,42.60
2019-05-12T08:01:02.564Z,42.50
2019-05-12T08:03:25.808Z,42.00
2019-05-12T08:05:57.450Z,41.90
2019-05-12T08:08:23.492Z,42.00
2019-05-12T08:10:51.325Z,42.40
2019-05-12T08:13:18.772Z,42.70
2019-05-12T08:15:50.205Z,43.10
2019-05-12T08:18:14.444Z,43.80
2019-05-12T08:20:43.401Z,44.30
2019-05-12T08:23:10.713Z,44.60
2019-05-12T08:25:37.494Z,44.00
2019-05-12T08:28:14.706Z,43.60
2019-05-12T08:30:33.628Z,42.80
2019-05-12T08:33:03.844Z,41.90
2019-05-12T08:35:34.627Z,41.30
2019-05-12T08:37:57.818Z,40.70
2019-05-12T08:40:24.873Z,39.90
2019-05-12T08:42:53.875Z,39.80
2019-05-12T08:45:27.477Z,39.70
2019-05-12T08:47:48.886Z,39.30
2019-05-12T08:50:15.663Z,38.70
2019-05-12T08:52:44.315Z,37.90
2019-05-12T08:55:13.851Z,37.90
2019-05-12T08:57:44.409Z,37.80
2019-05-12T09:00:08.716Z,38.00
2019-05-12T09:02:39.872Z,37.60
2019-05-12T09:05:04.792Z,37.40
2019-05-12T09:07:35.831Z,37.50
2019-05-12T09:10:00.227Z,37.70
2019-05-12T09:12:27.072Z,38.00
2019-05-12T09:14:54.586Z,38.40
2019-05-12T09:17:23.239Z,38.60
2019-05-12T09:19:54.969Z,38.40
2019-05-12T09:22:20.831Z,38.60
2019-05-12T09:24:47.022Z,38.90
2019-05-12T09:27:13.850Z,39.10
2019-05-12T09:29:40.705Z,39.10
2019-05-12T09:32:09.514Z,39.10
2019-05-12T09:34:35.920Z,39.20
2019-05-12T09:37:04.056Z,39.20
2019-05-12T09:39:34.045Z,39.20
2019-05-12T09:41:59.347Z,39.40
2019-05-12T09:44:30.323Z,39.30
2019-05-12T09:46:54.727Z,39.10
2019-05-12T09:49:22.829Z,39.40
2019-05-12T09:51:50.411Z,39.40
2019-05-12T09:54:17.199Z,39.50
2019-05-12T09:56:44.283Z,39.90
2019-05-12T09:59:19.079Z,40.20
2019-05-12T10:01:40.666Z,40.60
2019-05-12T10:04:10.459Z,41.00
2019-05-12T10:06:36.634Z,41.10
2019-05-12T10:09:03.555Z,41.00
2019-05-12T10:11:30.417Z,41.00
2019-05-12T10:14:00.177Z,40.80
2019-05-12T10:16:25.738Z,40.70
2019-05-12T10:18:52.789Z,40.60
2019-05-12T10:21:19.731Z,40.60
2019-05-12T10:23:51.150Z,40.60
2019-05-12T10:26:14.974Z,40.40
2019-05-12T10:28:43.772Z,40.20
2019-05-12T10:31:10.274Z,40.00
2019-05-12T10:33:37.120Z,39.90
2019-05-12T10:36:08.291Z,39.70
2019-05-12T10:38:34.334Z,39.40
2019-05-12T10:41:01.219Z,39.30
2019-05-12T10:43:28.060Z,39.60
2019-05-12T10:45:54.902Z,39.80
2019-05-12T10:48:23.412Z,40.10
2019-05-12T10:50:50.242Z,40.50
2019-05-12T10:53:17.930Z,41.40
2019-05-12T10:55:44.726Z,42.10
2019-05-12T10:58:11.567Z,42.60
2019-05-12T11:00:38.410Z,43.10
2019-05-12T11:03:12.152Z,43.70
2019-05-12T11:05:34.218Z,44.20
2019-05-12T11:08:06.496Z,44.60
2019-05-12T11:10:29.778Z,44.80
2019-05-12T11:12:59.244Z,45.30
2019-05-12T11:15:25.128Z,45.60
2019-05-12T11:17:53.414Z,45.80
2019-05-12T11:20:20.414Z,45.30
2019-05-12T11:22:47.156Z,44.90
2019-05-12T11:25:14.440Z,44.30
2019-05-12T11:27:43.589Z,43.40
2019-05-12T11:30:09.829Z,42.60
2019-05-12T11:32:38.045Z,42.00
2019-05-12T11:35:04.949Z,41.50
2019-05-12T11:37:33.708Z,41.10
2019-05-12T11:40:00.284Z,40.70
2019-05-12T11:42:27.121Z,40.30
2019-05-12T11:44:54.059Z,39.60
2019-05-12T11:47:24.176Z,38.90
2019-05-12T11:49:49.379Z,38.20
2019-05-12T11:52:19.269Z,37.60
2019-05-12T11:54:47.135Z,36.80
2019-05-12T11:57:13.357Z,36.60
2019-05-12T11:59:40.351Z,36.40
2019-05-12T12:02:07.168Z,36.20
2019-05-12T12:04:34.074Z,35.90
2019-05-12T12:07:00.956Z,35.90
2019-05-12T12:09:27.798Z,35.60
2019-05-12T12:12:02.479Z,35.20
2019-05-12T12:14:23.817Z,34.80
2019-05-12T12:16:51.609Z,34.60
2019-05-12T12:19:19.162Z,34.60
2019-05-12T12:21:49.900Z,34.70
2019-05-12T12:24:14.480Z,34.80
2019-05-12T12:26:41.524Z,34.80
2019-05-12T12:29:08.377Z,35.10
2019-05-12T12:31:38.794Z,35.10
2019-05-12T12:34:03.690Z,35.00
2019-05-12T12:36:30.536Z,34.90
2019-05-12T12:38:57.369Z,34.50
2019-05-12T12:41:24.218Z,34.40
2019-05-12T12:43:51.053Z,34.30
2019-05-12T12:46:21.429Z,34.20
2019-05-12T12:48:46.332Z,34.00
2019-05-12T12:51:17.236Z,33.70
2019-05-12T12:53:43.717Z,33.40
2019-05-12T12:56:10.079Z,33.00
2019-05-12T12:58:36.919Z,33.00
2019-05-12T13:01:03.871Z,32.80
2019-05-12T13:03:31.420Z,32.70
2019-05-12T13:05:58.164Z,32.30
2019-05-12T13:08:25.011Z,32.20
2019-05-12T13:10:54.094Z,32.30
2019-05-12T13:13:20.430Z,32.30
2019-05-12T13:15:47.266Z,32.30
2019-05-12T13:18:18.064Z,32.50
2019-05-12T13:20:43.544Z,32.30
2019-05-12T13:23:10.429Z,32.00
2019-05-12T13:25:38.849Z,32.00
2019-05-12T13:28:10.329Z,31.90
2019-05-12T13:30:45.537Z,31.70
2019-05-12T13:33:03.575Z,31.50
2019-05-12T13:35:30.542Z,31.60
2019-05-12T13:38:00.468Z,31.50
2019-05-12T13:40:29.829Z,31.30
2019-05-12T13:42:54.681Z,31.00
2019-05-12T13:45:21.450Z,30.80
2019-05-12T13:47:48.394Z,30.60
2019-05-12T13:50:21.815Z,30.20
2019-05-12T13:52:43.719Z,29.90
2019-05-12T13:55:13.238Z,29.50
2019-05-12T13:57:46.206Z,29.40
2019-05-12T14:00:10.612Z,28.80
2019-05-12T14:02:36.409Z,28.80
2019-05-12T14:05:06.971Z,28.90
2019-05-12T14:07:34.378Z,28.50
2019-05-12T14:10:00.114Z,28.50
2019-05-12T14:12:26.951Z,28.70
2019-05-12T14:14:53.698Z,28.70
2019-05-12T14:17:20.587Z,28.40
2019-05-12T14:19:47.374Z,28.00
2019-05-12T14:22:21.173Z,28.00
2019-05-12T14:24:46.700Z,28.00
2019-05-12T14:27:11.174Z,27.90
2019-05-12T14:29:38.021Z,27.40
2019-05-12T14:32:05.465Z,26.80
2019-05-12T14:34:33.994Z,27.10
2019-05-12T14:37:06.840Z,27.10
2019-05-12T14:39:29.289Z,26.80
2019-05-12T14:41:56.118Z,26.80
2019-05-12T14:44:23.714Z,26.50
2019-05-12T14:46:50.890Z,26.30
2019-05-12T14:49:20.186Z,26.60
2019-05-12T14:51:46.457Z,26.70
2019-05-12T14:54:13.505Z,26.60
2019-05-12T14:56:44.780Z,26.70
2019-05-12T14:59:09.024Z,26.50
2019-05-12T15:01:51.634Z,26.60
2019-05-12T15:04:05.245Z,26.50
2019-05-12T15:06:34.011Z,26.10
2019-05-12T15:09:00.894Z,26.20
2019-05-12T15:11:27.739Z,26.30
2019-05-12T15:13:54.576Z,26.20
2019-05-12T15:16:23.638Z,26.30
2019-05-12T15:18:50.259Z,26.30
2019-05-12T15:21:21.304Z,26.40
2019-05-12T15:23:45.638Z,26.40
2019-05-12T15:26:15.786Z,26.30
2019-05-12T15:28:40.957Z,26.40
2019-05-12T15:31:09.586Z,26.60
2019-05-12T15:33:36.379Z,26.60
2019-05-12T15:36:04.622Z,26.80
2019-05-12T15:38:34.045Z,27.10
2019-05-12T15:41:00.185Z,27.10
2019-05-12T15:43:27.021Z,27.00
2019-05-12T15:45:55.384Z,27.20
2019-05-12T15:48:25.608Z,27.20
2019-05-12T15:50:50.822Z,27.20
2019-05-12T15:53:22.106Z,27.30
2019-05-12T15:55:49.783Z,27.30
2019-05-12T15:58:15.021Z,27.20
2019-05-12T16:00:43.841Z,27.20
2019-05-12T16:03:10.359Z,27.20
2019-05-12T16:05:37.299Z,27.00
2019-05-12T16:08:04.115Z,27.10
2019-05-12T16:10:30.892Z,27.30
2019-05-12T16:12:57.721Z,27.10
2019-05-12T16:15:24.623Z,27.20
2019-05-12T16:17:51.405Z,27.10
2019-05-12T16:20:18.256Z,27.10
2019-05-12T16:22:45.526Z,27.20
2019-05-12T16:25:14.825Z,27.20
2019-05-12T16:27:40.822Z,27.20
2019-05-12T16:30:07.662Z,27.20
2019-05-12T16:32:42.690Z,27.30
2019-05-12T16:35:07.163Z,27.30
2019-05-12T16:37:34.629Z,27.40
2019-05-12T16:39:59.863Z,27.40
2019-05-12T16:42:26.682Z,27.30
2019-05-12T16:44:56.174Z,27.30
2019-05-12T16:47:27.307Z,27.30
2019-05-12T16:49:50.489Z,27.30
2019-05-12T16:52:17.746Z,27.20
2019-05-12T16:54:44.634Z,27.40
2019-05-12T16:57:15.384Z,27.30
2019-05-12T16:59:40.010Z,27.30
2019-05-12T17:02:09.757Z,27.40
2019-05-12T17:04:35.381Z,27.50
2019-05-12T17:07:02.754Z,27.60
2019-05-12T17:09:29.803Z,27.50
2019-05-12T17:11:56.799Z,27.50
2019-05-12T17:14:23.802Z,27.30
2019-05-12T17:16:50.559Z,27.40
2019-05-12T17:19:17.410Z,27.40
2019-05-12T17:21:49.372Z,27.40
2019-05-12T17:24:14.627Z,27.10
2019-05-12T17:26:43.966Z,27.00
2019-05-12T17:29:10.705Z,27.20
2019-05-12T17:31:37.747Z,27.10
2019-05-12T17:34:08.884Z,27.10
2019-05-12T17:36:34.286Z,26.90
2019-05-12T17:39:01.568Z,27.00
2019-05-12T17:41:31.381Z,27.10
2019-05-12T17:44:01.334Z,27.00
2019-05-12T17:46:25.253Z,26.80
2019-05-12T17:48:53.242Z,26.70
2019-05-12T17:51:25.727Z,26.90
2019-05-12T17:53:49.558Z,26.70
2019-05-12T17:56:16.828Z,26.70
2019-05-12T17:58:47.470Z,26.80
2019-05-12T18:01:14.313Z,26.80
2019-05-12T18:03:48.663Z,26.80
2019-05-12T18:06:11.226Z,27.00
2019-05-12T18:08:38.771Z,26.80
2019-05-12T18:11:11.333Z,26.90
2019-05-12T18:13:34.611Z,26.80
2019-05-12T18:16:05.294Z,26.80
2019-05-12T18:18:32.603Z,26.80
2019-05-12T18:20:59.602Z,26.80
2019-05-12T18:23:30.359Z,26.90
2019-05-12T18:25:54.791Z,26.90
2019-05-12T18:28:27.092Z,26.90
2019-05-12T18:30:50.211Z,26.90
2019-05-12T18:33:29.540Z,26.70
2019-05-12T18:35:45.538Z,26.70
2019-05-12T18:38:18.215Z,26.60
2019-05-12T18:40:40.850Z,26.60
2019-05-12T18:43:07.693Z,26.80
2019-05-12T18:45:34.438Z,26.70
2019-05-12T18:48:01.347Z,26.70
2019-05-12T18:50:31.447Z,26.40
2019-05-12T18:52:56.908Z,26.40
2019-05-12T18:55:23.716Z,26.40
2019-05-12T18:57:50.695Z,26.30
2019-05-12T19:00:17.531Z,26.40
2019-05-12T19:02:44.378Z,26.40
2019-05-12T19:05:12.830Z,26.30
2019-05-12T19:07:40.274Z,26.50
2019-05-12T19:10:07.055Z,26.60
2019-05-12T19:12:35.654Z,26.60
2019-05-12T19:15:04.571Z,26.60
2019-05-12T19:17:30.852Z,26.40
2019-05-12T19:20:00.031Z,26.60
2019-05-12T19:22:26.172Z,26.70
2019-05-12T19:24:56.713Z,26.60
2019-05-12T19:27:21.394Z,26.50
2019-05-12T19:29:49.246Z,26.60
2019-05-12T19:32:16.202Z,26.60
2019-05-12T19:34:43.344Z,26.60
2019-05-12T19:37:14.106Z,26.70
2019-05-12T19:39:40.004Z,26.50
2019-05-12T19:42:10.467Z,26.50
2019-05-12T19:44:35.293Z,26.60
2019-05-12T19:47:02.073Z,26.70
2019-05-12T19:49:43.489Z,26.70
2019-05-12T19:51:57.401Z,26.70
2019-05-12T19:54:27.982Z,26.60
2019-05-12T19:56:53.728Z,26.70
2019-05-12T19:59:20.715Z,26.90
2019-05-12T20:01:47.522Z,27.00
2019-05-12T20:04:28.793Z,26.80
2019-05-12T20:06:43.967Z,26.90
2019-05-12T20:09:11.196Z,27.00
2019-05-12T20:11:39.077Z,27.00
2019-05-12T20:14:09.920Z,27.10
2019-05-12T20:16:34.716Z,27.10
2019-05-12T20:19:04.131Z,27.10
2019-05-12T20:21:31.368Z,27.20
2019-05-12T20:23:58.206Z,27.10
2019-05-12T20:26:25.047Z,27.10
2019-05-12T20:28:53.411Z,27.00
2019-05-12T20:31:23.665Z,27.10
2019-05-12T20:33:48.850Z,27.00
2019-05-12T20:36:20.737Z,27.20
2019-05-12T20:38:44.595Z,27.00
2019-05-12T20:41:21.884Z,26.80
2019-05-12T20:43:43.605Z,26.70
2019-05-12T20:46:15.833Z,26.70
2019-05-12T20:48:37.743Z,26.50
2019-05-12T20:51:08.620Z,26.60
2019-05-12T20:53:36.302Z,26.80
2019-05-12T20:56:03.608Z,26.80
2019-05-12T20:58:37.527Z,26.90
2019-05-12T21:01:01.641Z,26.90
2019-05-12T21:03:27.130Z,27.00
2019-05-12T21:05:59.106Z,27.10
2019-05-12T21:08:23.651Z,27.10
2019-05-12T21:10:50.629Z,27.20
2019-05-12T21:13:20.226Z,27.20
2019-05-12T21:15:45.999Z,27.30
2019-05-12T21:18:14.684Z,27.30
2019-05-12T21:20:46.428Z,27.30
2019-05-12T21:23:09.749Z,27.30
2019-05-12T21:25:36.691Z,27.30
2019-05-12T21:28:07.718Z,27.30
2019-05-12T21:30:33.829Z,27.10
2019-05-12T21:33:01.482Z,27.10
2019-05-12T21:35:31.766Z,27.10
2019-05-12T21:37:56.842Z,27.10
2019-05-12T21:40:30.465Z,27.00
2019-05-12T21:42:53.692Z,27.00
2019-05-12T21:45:26.723Z,26.90
2019-05-12T21:47:49.120Z,27.00
2019-05-12T21:50:15.859Z,27.00
2019-05-12T21:52:44.623Z,26.90
2019-05-12T21:55:15.384Z,26.90
2019-05-12T21:57:39.660Z,26.90
2019-05-12T22:00:10.601Z,26.70
2019-05-12T22:02:35.087Z,26.70
2019-05-12T22:05:04.020Z,26.80
2019-05-12T22:07:35.575Z,26.80
2019-05-12T22:09:58.848Z,26.80
2019-05-12T22:12:28.469Z,26.60
2019-05-12T22:14:54.343Z,26.80
2019-05-12T22:17:23.854Z,26.80
2019-05-12T22:19:49.894Z,26.70
2019-05-12T22:22:19.507Z,26.60
2019-05-12T22:24:45.162Z,26.70
2019-05-12T22:27:16.163Z,26.80
2019-05-12T22:29:40.379Z,26.70
2019-05-12T22:32:07.171Z,26.80
2019-05-12T22:34:39.769Z,26.90
2019-05-12T22:37:03.905Z,26.90
2019-05-12T22:39:33.824Z,26.90
2019-05-12T22:41:59.402Z,27.00
2019-05-12T22:44:26.248Z,26.90
2019-05-12T22:46:54.058Z,26.90
2019-05-12T22:49:21.318Z,26.90
2019-05-12T22:51:56.571Z,26.90
2019-05-12T22:54:16.890Z,26.90
2019-05-12T22:56:44.195Z,26.90
2019-05-12T22:59:11.080Z,27.00
2019-05-12T23:01:41.597Z,27.00
2019-05-12T23:04:06.407Z,27.10
2019-05-12T23:06:41.914Z,27.00
2019-05-12T23:09:01.752Z,27.00
2019-05-12T23:11:31.967Z,27.10
2019-05-12T23:13:57.056Z,27.00
2019-05-12T23:16:26.151Z,27.00
2019-05-12T23:18:53.741Z,27.00
2019-05-12T23:21:20.539Z,27.00
2019-05-12T23:23:49.974Z,27.00
2019-05-12T23:26:15.863Z,27.00
2019-05-12T23:28:46.742Z,27.00
2019-05-12T23:31:13.277Z,26.80
2019-05-12T23:33:39.559Z,26.80
2019-05-12T23:36:09.654Z,26.80
2019-05-12T23:38:34.781Z,26.90
2019-05-12T23:41:01.622Z,26.90
2019-05-12T23:43:28.366Z,27.00
2019-05-12T23:45:55.144Z,27.00
2019-05-12T23:48:21.943Z,26.90
2019-05-12T23:50:48.682Z,27.10
2019-05-12T23:53:15.522Z,26.80
2019-05-12T23:55:43.789Z,26.80
2019-05-12T23:58:10.747Z,26.80
